Dies, Texas
Current Conditions -  °F | °C
As of 11:55 AM on Friday 21 Nov 2014 (Local Time) from KJAS Reporting Station
Moderate Rain Moderate Rain  
Wind Chill: 61°   Ceiling: 3900
Heat Index: 61°   Visibility: 10mi
Dew Point: 56°   Wind: 5mph
Humidity: 85%   Direction: 120°ESE
Pressure: 30.22"   Gusts: NA
Location:  30.7643°N, 94.4448°W
Report Text: KJAS 211755Z AUTO 12004KT 10SM RA SCT032 BKN039 OVC045 16/14 A3022 RMK AO2 T01600135
Loading
Personal Weather Stations






























Interactive Weather Map New forecast layout! Learn more

10-Day Weather Forecast

Advertisements
Track Severe Weather on mobile